sensor_id;sensor_type;location;lat;lon;timestamp;temperature;humidity
8939;DHT22;4504;48.810;9.172;2023-04-06T00:00:32;3.60;92.70
8939;DHT22;4504;48.810;9.172;2023-04-06T00:02:59;3.60;92.90
8939;DHT22;4504;48.810;9.172;2023-04-06T00:05:27;3.60;93.30
8939;DHT22;4504;48.810;9.172;2023-04-06T00:07:57;3.60;93.80
8939;DHT22;4504;48.810;9.172;2023-04-06T00:10:24;3.60;94.20
8939;DHT22;4504;48.810;9.172;2023-04-06T00:12:52;3.60;94.70
8939;DHT22;4504;48.810;9.172;2023-04-06T00:15:19;3.60;94.90
8939;DHT22;4504;48.810;9.172;2023-04-06T00:17:46;3.60;95.00
8939;DHT22;4504;48.810;9.172;2023-04-06T00:20:13;3.70;95.40
8939;DHT22;4504;48.810;9.172;2023-04-06T00:22:41;3.70;95.60
8939;DHT22;4504;48.810;9.172;2023-04-06T00:25:09;3.70;95.30
8939;DHT22;4504;48.810;9.172;2023-04-06T00:27:36;3.60;95.30
8939;DHT22;4504;48.810;9.172;2023-04-06T00:30:04;3.60;95.70
8939;DHT22;4504;48.810;9.172;2023-04-06T00:32:31;3.60;95.90
8939;DHT22;4504;48.810;9.172;2023-04-06T00:34:58;3.60;96.20
8939;DHT22;4504;48.810;9.172;2023-04-06T00:37:25;3.60;96.60
8939;DHT22;4504;48.810;9.172;2023-04-06T00:39:54;3.50;96.80
8939;DHT22;4504;48.810;9.172;2023-04-06T00:42:21;3.50;96.90
8939;DHT22;4504;48.810;9.172;2023-04-06T00:44:52;3.50;97.40
8939;DHT22;4504;48.810;9.172;2023-04-06T00:47:20;3.40;97.90
8939;DHT22;4504;48.810;9.172;2023-04-06T00:49:47;3.40;98.30
8939;DHT22;4504;48.810;9.172;2023-04-06T00:52:14;3.40;98.50
8939;DHT22;4504;48.810;9.172;2023-04-06T00:54:44;3.40;98.60
8939;DHT22;4504;48.810;9.172;2023-04-06T00:57:14;3.40;98.70
8939;DHT22;4504;48.810;9.172;2023-04-06T00:59:42;3.40;98.60
8939;DHT22;4504;48.810;9.172;2023-04-06T01:02:11;3.50;98.80
8939;DHT22;4504;48.810;9.172;2023-04-06T01:04:44;3.50;99.00
8939;DHT22;4504;48.810;9.172;2023-04-06T01:07:20;3.60;99.00
8939;DHT22;4504;48.810;9.172;2023-04-06T01:10:01;3.60;99.20
8939;DHT22;4504;48.810;9.172;2023-04-06T01:12:32;3.40;99.50
8939;DHT22;4504;48.810;9.172;2023-04-06T01:15:03;3.30;99.90
8939;DHT22;4504;48.810;9.172;2023-04-06T01:17:32;3.20;99.90
8939;DHT22;4504;48.810;9.172;2023-04-06T01:20:07;3.20;99.90
8939;DHT22;4504;48.810;9.172;2023-04-06T01:22:36;3.20;99.90
8939;DHT22;4504;48.810;9.172;2023-04-06T01:25:04;3.20;99.90
8939;DHT22;4504;48.810;9.172;2023-04-06T01:27:38;3.10;99.90
8939;DHT22;4504;48.810;9.172;2023-04-06T01:30:12;3.00;99.90
8939;DHT22;4504;48.810;9.172;2023-04-06T01:33:01;3.00;99.90
8939;DHT22;4504;48.810;9.172;2023-04-06T01:35:38;2.90;99.90
8939;DHT22;4504;48.810;9.172;2023-04-06T01:38:18;2.90;99.90
8939;DHT22;4504;48.810;9.172;2023-04-06T01:40:47;2.80;99.90
8939;DHT22;4504;48.810;9.172;2023-04-06T01:43:15;2.80;99.90
8939;DHT22;4504;48.810;9.172;2023-04-06T01:45:59;2.80;99.90
8939;DHT22;4504;48.810;9.172;2023-04-06T01:48:31;2.80;99.90
8939;DHT22;4504;48.810;9.172;2023-04-06T01:51:02;2.70;99.90
8939;DHT22;4504;48.810;9.172;2023-04-06T01:53:34;2.70;99.90
8939;DHT22;4504;48.810;9.172;2023-04-06T01:56:05;2.70;99.90
8939;DHT22;4504;48.810;9.172;2023-04-06T01:58:37;2.70;99.90
8939;DHT22;4504;48.810;9.172;2023-04-06T02:01:04;2.80;99.90
8939;DHT22;4504;48.810;9.172;2023-04-06T02:03:43;2.80;99.90
8939;DHT22;4504;48.810;9.172;2023-04-06T02:06:11;2.80;99.90
8939;DHT22;4504;48.810;9.172;2023-04-06T02:08:41;2.80;99.90
8939;DHT22;4504;48.810;9.172;2023-04-06T02:11:08;2.70;99.90
8939;DHT22;4504;48.810;9.172;2023-04-06T02:13:48;2.70;99.90
8939;DHT22;4504;48.810;9.172;2023-04-06T02:16:16;2.70;99.90
8939;DHT22;4504;48.810;9.172;2023-04-06T02:18:45;2.70;99.90
8939;DHT22;4504;48.810;9.172;2023-04-06T02:21:11;2.70;99.90
8939;DHT22;4504;48.810;9.172;2023-04-06T02:23:38;2.70;99.90
8939;DHT22;4504;48.810;9.172;2023-04-06T02:26:07;2.60;99.90
8939;DHT22;4504;48.810;9.172;2023-04-06T02:28:34;2.60;99.90
8939;DHT22;4504;48.810;9.172;2023-04-06T02:31:00;2.50;99.90
8939;DHT22;4504;48.810;9.172;2023-04-06T02:33:27;2.50;99.90
8939;DHT22;4504;48.810;9.172;2023-04-06T02:35:55;2.40;99.90
8939;DHT22;4504;48.810;9.172;2023-04-06T02:38:22;2.40;99.90
8939;DHT22;4504;48.810;9.172;2023-04-06T02:40:51;2.40;99.90
8939;DHT22;4504;48.810;9.172;2023-04-06T02:43:25;2.30;99.90
8939;DHT22;4504;48.810;9.172;2023-04-06T02:46:01;2.20;99.90
8939;DHT22;4504;48.810;9.172;2023-04-06T02:48:30;2.20;99.90
8939;DHT22;4504;48.810;9.172;2023-04-06T02:50:57;2.10;99.90
8939;DHT22;4504;48.810;9.172;2023-04-06T02:53:24;2.00;99.90
8939;DHT22;4504;48.810;9.172;2023-04-06T02:55:53;2.00;99.90
8939;DHT22;4504;48.810;9.172;2023-04-06T02:58:26;2.00;99.90
8939;DHT22;4504;48.810;9.172;2023-04-06T03:00:56;2.00;99.90
8939;DHT22;4504;48.810;9.172;2023-04-06T03:03:23;1.90;99.90
8939;DHT22;4504;48.810;9.172;2023-04-06T03:05:50;1.90;99.90
8939;DHT22;4504;48.810;9.172;2023-04-06T03:08:25;1.80;99.90
8939;DHT22;4504;48.810;9.172;2023-04-06T03:10:52;1.80;99.90
8939;DHT22;4504;48.810;9.172;2023-04-06T03:13:19;1.80;99.90
8939;DHT22;4504;48.810;9.172;2023-04-06T03:15:50;1.70;99.90
8939;DHT22;4504;48.810;9.172;2023-04-06T03:18:22;1.80;99.90
8939;DHT22;4504;48.810;9.172;2023-04-06T03:20:50;1.90;99.90
8939;DHT22;4504;48.810;9.172;2023-04-06T03:23:19;2.00;99.90
8939;DHT22;4504;48.810;9.172;2023-04-06T03:25:50;2.10;99.90
8939;DHT22;4504;48.810;9.172;2023-04-06T03:28:19;2.00;99.90
8939;DHT22;4504;48.810;9.172;2023-04-06T03:30:52;2.00;99.90
8939;DHT22;4504;48.810;9.172;2023-04-06T03:33:36;1.90;99.90
8939;DHT22;4504;48.810;9.172;2023-04-06T03:36:03;1.70;99.90
8939;DHT22;4504;48.810;9.172;2023-04-06T03:38:34;1.70;99.90
8939;DHT22;4504;48.810;9.172;2023-04-06T03:41:07;1.60;99.90
8939;DHT22;4504;48.810;9.172;2023-04-06T03:43:34;1.70;99.90
8939;DHT22;4504;48.810;9.172;2023-04-06T03:46:03;1.70;99.90
8939;DHT22;4504;48.810;9.172;2023-04-06T03:48:30;1.70;99.90
8939;DHT22;4504;48.810;9.172;2023-04-06T03:51:01;1.70;99.90
8939;DHT22;4504;48.810;9.172;2023-04-06T03:53:28;1.60;99.90
8939;DHT22;4504;48.810;9.172;2023-04-06T03:55:55;1.60;99.90
8939;DHT22;4504;48.810;9.172;2023-04-06T03:58:22;1.50;99.90
8939;DHT22;4504;48.810;9.172;2023-04-06T04:00:49;1.50;99.90
8939;DHT22;4504;48.810;9.172;2023-04-06T04:03:17;1.60;99.90
8939;DHT22;4504;48.810;9.172;2023-04-06T04:05:44;1.50;99.90
8939;DHT22;4504;48.810;9.172;2023-04-06T04:08:11;1.50;99.90
8939;DHT22;4504;48.810;9.172;2023-04-06T04:10:38;1.50;99.90
8939;DHT22;4504;48.810;9.172;2023-04-06T04:13:05;1.50;99.90
8939;DHT22;4504;48.810;9.172;2023-04-06T04:15:32;1.50;99.90
8939;DHT22;4504;48.810;9.172;2023-04-06T04:17:59;1.50;99.90
8939;DHT22;4504;48.810;9.172;2023-04-06T04:20:28;1.50;99.90
8939;DHT22;4504;48.810;9.172;2023-04-06T04:22:55;1.50;99.90
8939;DHT22;4504;48.810;9.172;2023-04-06T04:25:23;1.60;99.90
8939;DHT22;4504;48.810;9.172;2023-04-06T04:27:50;1.50;99.90
8939;DHT22;4504;48.810;9.172;2023-04-06T04:30:19;1.50;99.90
8939;DHT22;4504;48.810;9.172;2023-04-06T04:32:46;1.50;99.90
8939;DHT22;4504;48.810;9.172;2023-04-06T04:35:16;1.40;99.90
8939;DHT22;4504;48.810;9.172;2023-04-06T04:37:45;1.40;99.90
8939;DHT22;4504;48.810;9.172;2023-04-06T04:40:12;1.40;99.90
8939;DHT22;4504;48.810;9.172;2023-04-06T04:42:49;1.40;99.90
8939;DHT22;4504;48.810;9.172;2023-04-06T04:45:23;1.40;99.90
8939;DHT22;4504;48.810;9.172;2023-04-06T04:47:50;1.40;99.90
8939;DHT22;4504;48.810;9.172;2023-04-06T04:50:19;1.40;99.90
8939;DHT22;4504;48.810;9.172;2023-04-06T04:52:50;1.40;99.90
8939;DHT22;4504;48.810;9.172;2023-04-06T04:55:21;1.40;99.90
8939;DHT22;4504;48.810;9.172;2023-04-06T04:57:52;1.40;99.90
8939;DHT22;4504;48.810;9.172;2023-04-06T05:00:24;1.40;99.90
8939;DHT22;4504;48.810;9.172;2023-04-06T05:02:55;1.40;99.90
8939;DHT22;4504;48.810;9.172;2023-04-06T05:05:28;1.40;99.90
8939;DHT22;4504;48.810;9.172;2023-04-06T05:07:56;1.40;99.90
8939;DHT22;4504;48.810;9.172;2023-04-06T05:10:44;1.40;99.90
8939;DHT22;4504;48.810;9.172;2023-04-06T05:13:12;1.40;99.90
8939;DHT22;4504;48.810;9.172;2023-04-06T05:15:39;1.40;99.90
8939;DHT22;4504;48.810;9.172;2023-04-06T05:18:31;1.50;99.90
8939;DHT22;4504;48.810;9.172;2023-04-06T05:20:58;1.50;99.90
8939;DHT22;4504;48.810;9.172;2023-04-06T05:23:35;1.60;99.90
8939;DHT22;4504;48.810;9.172;2023-04-06T05:26:02;1.60;99.90
8939;DHT22;4504;48.810;9.172;2023-04-06T05:28:31;1.70;99.90
8939;DHT22;4504;48.810;9.172;2023-04-06T05:30:59;1.70;99.90
8939;DHT22;4504;48.810;9.172;2023-04-06T05:33:32;1.70;99.90
8939;DHT22;4504;48.810;9.172;2023-04-06T05:36:09;1.70;99.90
8939;DHT22;4504;48.810;9.172;2023-04-06T05:38:41;1.90;99.90
8939;DHT22;4504;48.810;9.172;2023-04-06T05:41:18;2.10;99.90
8939;DHT22;4504;48.810;9.172;2023-04-06T05:43:45;2.20;99.90
8939;DHT22;4504;48.810;9.172;2023-04-06T05:46:12;2.30;99.90
8939;DHT22;4504;48.810;9.172;2023-04-06T05:48:39;2.40;99.90
8939;DHT22;4504;48.810;9.172;2023-04-06T05:51:07;2.30;99.90
8939;DHT22;4504;48.810;9.172;2023-04-06T05:53:45;2.40;99.90
8939;DHT22;4504;48.810;9.172;2023-04-06T05:56:12;2.30;99.90
8939;DHT22;4504;48.810;9.172;2023-04-06T05:58:40;2.30;99.90
8939;DHT22;4504;48.810;9.172;2023-04-06T06:01:10;2.40;99.90
8939;DHT22;4504;48.810;9.172;2023-04-06T06:03:41;2.50;99.90
8939;DHT22;4504;48.810;9.172;2023-04-06T06:06:08;2.50;99.90
8939;DHT22;4504;48.810;9.172;2023-04-06T06:08:47;2.50;99.90
8939;DHT22;4504;48.810;9.172;2023-04-06T06:11:16;2.60;99.90
8939;DHT22;4504;48.810;9.172;2023-04-06T06:13:43;2.60;99.90
8939;DHT22;4504;48.810;9.172;2023-04-06T06:16:10;2.70;99.90
8939;DHT22;4504;48.810;9.172;2023-04-06T06:18:43;2.80;99.90
8939;DHT22;4504;48.810;9.172;2023-04-06T06:21:10;2.80;99.90
8939;DHT22;4504;48.810;9.172;2023-04-06T06:23:38;2.90;99.90
8939;DHT22;4504;48.810;9.172;2023-04-06T06:26:07;2.90;99.90
8939;DHT22;4504;48.810;9.172;2023-04-06T06:28:34;3.00;99.90
8939;DHT22;4504;48.810;9.172;2023-04-06T06:31:02;3.10;99.90
8939;DHT22;4504;48.810;9.172;2023-04-06T06:33:29;3.10;99.90
8939;DHT22;4504;48.810;9.172;2023-04-06T06:35:57;3.20;99.90
8939;DHT22;4504;48.810;9.172;2023-04-06T06:38:24;3.30;99.90
8939;DHT22;4504;48.810;9.172;2023-04-06T06:40:52;3.40;99.90
8939;DHT22;4504;48.810;9.172;2023-04-06T06:43:22;3.50;99.90
8939;DHT22;4504;48.810;9.172;2023-04-06T06:45:54;3.50;99.90
8939;DHT22;4504;48.810;9.172;2023-04-06T06:48:21;3.60;99.90
8939;DHT22;4504;48.810;9.172;2023-04-06T06:50:48;3.70;99.90
8939;DHT22;4504;48.810;9.172;2023-04-06T06:53:15;3.70;99.90
8939;DHT22;4504;48.810;9.172;2023-04-06T06:55:42;3.80;99.90
8939;DHT22;4504;48.810;9.172;2023-04-06T06:58:10;3.80;99.90
8939;DHT22;4504;48.810;9.172;2023-04-06T07:00:38;3.80;99.90
8939;DHT22;4504;48.810;9.172;2023-04-06T07:03:07;3.90;99.90
8939;DHT22;4504;48.810;9.172;2023-04-06T07:05:34;3.90;99.90
8939;DHT22;4504;48.810;9.172;2023-04-06T07:08:01;4.00;99.90
8939;DHT22;4504;48.810;9.172;2023-04-06T07:10:28;4.10;99.90
8939;DHT22;4504;48.810;9.172;2023-04-06T07:12:55;4.20;99.90
8939;DHT22;4504;48.810;9.172;2023-04-06T07:15:22;4.20;99.90
8939;DHT22;4504;48.810;9.172;2023-04-06T07:17:52;4.20;99.90
8939;DHT22;4504;48.810;9.172;2023-04-06T07:20:20;4.30;99.90
8939;DHT22;4504;48.810;9.172;2023-04-06T07:22:47;4.40;99.90
8939;DHT22;4504;48.810;9.172;2023-04-06T07:25:15;4.40;99.90
8939;DHT22;4504;48.810;9.172;2023-04-06T07:27:41;4.60;99.90
8939;DHT22;4504;48.810;9.172;2023-04-06T07:30:09;4.60;99.90
8939;DHT22;4504;48.810;9.172;2023-04-06T07:32:37;4.70;99.90
8939;DHT22;4504;48.810;9.172;2023-04-06T07:35:06;4.80;99.90
8939;DHT22;4504;48.810;9.172;2023-04-06T07:37:33;4.80;99.90
8939;DHT22;4504;48.810;9.172;2023-04-06T07:40:00;4.90;99.90
8939;DHT22;4504;48.810;9.172;2023-04-06T07:42:27;4.90;99.90
8939;DHT22;4504;48.810;9.172;2023-04-06T07:44:54;5.00;99.90
8939;DHT22;4504;48.810;9.172;2023-04-06T07:47:23;5.00;99.90
8939;DHT22;4504;48.810;9.172;2023-04-06T07:49:50;5.20;99.90
8939;DHT22;4504;48.810;9.172;2023-04-06T07:52:18;5.20;99.90
8939;DHT22;4504;48.810;9.172;2023-04-06T07:54:45;5.30;99.50
8939;DHT22;4504;48.810;9.172;2023-04-06T07:57:14;5.40;99.40
8939;DHT22;4504;48.810;9.172;2023-04-06T07:59:41;5.40;99.30
8939;DHT22;4504;48.810;9.172;2023-04-06T08:02:08;5.50;99.40
8939;DHT22;4504;48.810;9.172;2023-04-06T08:04:35;5.60;99.30
8939;DHT22;4504;48.810;9.172;2023-04-06T08:07:02;5.70;98.70
8939;DHT22;4504;48.810;9.172;2023-04-06T08:09:30;5.80;98.60
8939;DHT22;4504;48.810;9.172;2023-04-06T08:11:57;5.80;98.90
8939;DHT22;4504;48.810;9.172;2023-04-06T08:14:24;5.90;98.60
8939;DHT22;4504;48.810;9.172;2023-04-06T08:16:51;6.00;98.50
8939;DHT22;4504;48.810;9.172;2023-04-06T08:19:18;6.10;97.80
8939;DHT22;4504;48.810;9.172;2023-04-06T08:21:45;6.20;97.70
8939;DHT22;4504;48.810;9.172;2023-04-06T08:24:12;6.30;97.40
8939;DHT22;4504;48.810;9.172;2023-04-06T08:26:41;6.30;97.30
8939;DHT22;4504;48.810;9.172;2023-04-06T08:29:08;6.50;97.10
8939;DHT22;4504;48.810;9.172;2023-04-06T08:31:35;6.50;96.80
8939;DHT22;4504;48.810;9.172;2023-04-06T08:34:04;6.60;96.30
8939;DHT22;4504;48.810;9.172;2023-04-06T08:36:31;6.70;95.90
8939;DHT22;4504;48.810;9.172;2023-04-06T08:38:59;6.80;97.20
8939;DHT22;4504;48.810;9.172;2023-04-06T08:41:27;7.00;96.70
8939;DHT22;4504;48.810;9.172;2023-04-06T08:43:57;7.10;96.10
8939;DHT22;4504;48.810;9.172;2023-04-06T08:46:25;7.20;95.60
8939;DHT22;4504;48.810;9.172;2023-04-06T08:48:55;7.30;95.40
8939;DHT22;4504;48.810;9.172;2023-04-06T08:53:14;7.50;95.10
8939;DHT22;4504;48.810;9.172;2023-04-06T08:55:43;7.70;94.40
8939;DHT22;4504;48.810;9.172;2023-04-06T08:58:10;7.80;93.80
8939;DHT22;4504;48.810;9.172;2023-04-06T09:00:38;7.90;93.50
8939;DHT22;4504;48.810;9.172;2023-04-06T09:03:06;8.00;92.30
8939;DHT22;4504;48.810;9.172;2023-04-06T09:05:34;8.00;92.40
8939;DHT22;4504;48.810;9.172;2023-04-06T09:08:01;8.10;92.10
8939;DHT22;4504;48.810;9.172;2023-04-06T09:10:30;8.20;92.10
8939;DHT22;4504;48.810;9.172;2023-04-06T09:13:05;8.30;89.00
8939;DHT22;4504;48.810;9.172;2023-04-06T09:15:32;8.30;89.00
8939;DHT22;4504;48.810;9.172;2023-04-06T09:18:00;8.50;89.60
8939;DHT22;4504;48.810;9.172;2023-04-06T09:20:27;8.50;86.90
8939;DHT22;4504;48.810;9.172;2023-04-06T09:22:54;8.70;86.90
8939;DHT22;4504;48.810;9.172;2023-04-06T09:25:22;8.90;82.70
8939;DHT22;4504;48.810;9.172;2023-04-06T09:28:00;9.00;81.80
8939;DHT22;4504;48.810;9.172;2023-04-06T09:30:27;9.20;79.00
8939;DHT22;4504;48.810;9.172;2023-04-06T09:32:55;9.40;78.60
8939;DHT22;4504;48.810;9.172;2023-04-06T09:35:23;9.60;75.30
8939;DHT22;4504;48.810;9.172;2023-04-06T09:37:52;9.70;75.40
8939;DHT22;4504;48.810;9.172;2023-04-06T09:40:19;9.90;74.70
8939;DHT22;4504;48.810;9.172;2023-04-06T09:42:48;9.90;75.70
8939;DHT22;4504;48.810;9.172;2023-04-06T09:45:19;9.80;76.00
8939;DHT22;4504;48.810;9.172;2023-04-06T09:47:46;9.90;74.50
8939;DHT22;4504;48.810;9.172;2023-04-06T09:50:14;10.00;71.70
8939;DHT22;4504;48.810;9.172;2023-04-06T09:52:47;10.10;73.40
8939;DHT22;4504;48.810;9.172;2023-04-06T09:55:20;10.40;71.00
8939;DHT22;4504;48.810;9.172;2023-04-06T09:57:53;10.60;70.70
8939;DHT22;4504;48.810;9.172;2023-04-06T10:00:25;10.60;68.60
8939;DHT22;4504;48.810;9.172;2023-04-06T10:02:58;10.80;63.20
8939;DHT22;4504;48.810;9.172;2023-04-06T10:05:31;10.60;64.00
8939;DHT22;4504;48.810;9.172;2023-04-06T10:08:04;10.90;68.00
8939;DHT22;4504;48.810;9.172;2023-04-06T10:10:32;10.90;64.20
8939;DHT22;4504;48.810;9.172;2023-04-06T10:13:00;10.90;62.40
8939;DHT22;4504;48.810;9.172;2023-04-06T10:15:29;11.10;61.30
8939;DHT22;4504;48.810;9.172;2023-04-06T10:17:56;11.30;61.20
8939;DHT22;4504;48.810;9.172;2023-04-06T10:20:28;11.50;61.00
8939;DHT22;4504;48.810;9.172;2023-04-06T10:23:00;11.70;58.90
8939;DHT22;4504;48.810;9.172;2023-04-06T10:25:28;11.80;58.50
8939;DHT22;4504;48.810;9.172;2023-04-06T10:28:00;12.10;57.00
8939;DHT22;4504;48.810;9.172;2023-04-06T10:30:29;12.10;55.60
8939;DHT22;4504;48.810;9.172;2023-04-06T10:32:56;12.30;56.70
8939;DHT22;4504;48.810;9.172;2023-04-06T10:35:23;12.50;56.40
8939;DHT22;4504;48.810;9.172;2023-04-06T10:37:52;12.70;55.20
8939;DHT22;4504;48.810;9.172;2023-04-06T10:40:23;12.70;53.20
8939;DHT22;4504;48.810;9.172;2023-04-06T10:42:52;12.70;54.80
8939;DHT22;4504;48.810;9.172;2023-04-06T10:45:20;12.90;54.70
8939;DHT22;4504;48.810;9.172;2023-04-06T10:47:49;13.10;52.80
8939;DHT22;4504;48.810;9.172;2023-04-06T10:50:16;13.30;53.20
8939;DHT22;4504;48.810;9.172;2023-04-06T10:52:44;13.80;54.10
8939;DHT22;4504;48.810;9.172;2023-04-06T10:55:13;14.40;52.00
8939;DHT22;4504;48.810;9.172;2023-04-06T10:57:40;14.70;51.30
8939;DHT22;4504;48.810;9.172;2023-04-06T11:00:11;14.70;48.90
8939;DHT22;4504;48.810;9.172;2023-04-06T11:02:38;15.00;48.10
8939;DHT22;4504;48.810;9.172;2023-04-06T11:05:08;15.00;47.40
8939;DHT22;4504;48.810;9.172;2023-04-06T11:07:39;15.40;48.70
8939;DHT22;4504;48.810;9.172;2023-04-06T11:10:07;16.20;47.60
8939;DHT22;4504;48.810;9.172;2023-04-06T11:12:34;16.50;45.60
8939;DHT22;4504;48.810;9.172;2023-04-06T11:15:03;16.40;43.90
8939;DHT22;4504;48.810;9.172;2023-04-06T11:17:32;16.30;46.30
8939;DHT22;4504;48.810;9.172;2023-04-06T11:19:59;16.50;43.40
8939;DHT22;4504;48.810;9.172;2023-04-06T11:22:27;16.20;43.00
8939;DHT22;4504;48.810;9.172;2023-04-06T11:25:04;15.70;43.50
8939;DHT22;4504;48.810;9.172;2023-04-06T11:27:33;15.90;43.30
8939;DHT22;4504;48.810;9.172;2023-04-06T11:30:00;16.00;44.30
8939;DHT22;4504;48.810;9.172;2023-04-06T11:32:28;16.30;45.30
8939;DHT22;4504;48.810;9.172;2023-04-06T11:34:57;15.90;41.80
8939;DHT22;4504;48.810;9.172;2023-04-06T11:37:27;15.60;43.20
8939;DHT22;4504;48.810;9.172;2023-04-06T11:39:55;14.70;43.10
8939;DHT22;4504;48.810;9.172;2023-04-06T11:42:23;15.30;44.50
8939;DHT22;4504;48.810;9.172;2023-04-06T11:44:51;15.40;42.90
8939;DHT22;4504;48.810;9.172;2023-04-06T11:47:20;15.90;43.40
8939;DHT22;4504;48.810;9.172;2023-04-06T11:49:53;16.60;43.30
8939;DHT22;4504;48.810;9.172;2023-04-06T11:52:21;16.90;40.40
8939;DHT22;4504;48.810;9.172;2023-04-06T11:54:51;17.00;41.20
8939;DHT22;4504;48.810;9.172;2023-04-06T11:57:19;16.60;41.20
8939;DHT22;4504;48.810;9.172;2023-04-06T11:59:47;16.40;41.00
8939;DHT22;4504;48.810;9.172;2023-04-06T12:02:14;16.80;40.60
8939;DHT22;4504;48.810;9.172;2023-04-06T12:04:41;16.70;40.30
8939;DHT22;4504;48.810;9.172;2023-04-06T12:07:08;16.70;40.60
8939;DHT22;4504;48.810;9.172;2023-04-06T12:09:34;16.70;42.20
8939;DHT22;4504;48.810;9.172;2023-04-06T12:12:03;16.90;40.90
8939;DHT22;4504;48.810;9.172;2023-04-06T12:14:30;17.40;38.90
8939;DHT22;4504;48.810;9.172;2023-04-06T12:16:58;17.70;39.60
8939;DHT22;4504;48.810;9.172;2023-04-06T12:19:25;17.80;38.90
8939;DHT22;4504;48.810;9.172;2023-04-06T12:21:52;17.80;38.50
8939;DHT22;4504;48.810;9.172;2023-04-06T12:24:19;18.00;38.30
8939;DHT22;4504;48.810;9.172;2023-04-06T12:26:47;17.80;37.80
8939;DHT22;4504;48.810;9.172;2023-04-06T12:29:15;17.20;37.80
8939;DHT22;4504;48.810;9.172;2023-04-06T12:31:42;16.80;39.50
8939;DHT22;4504;48.810;9.172;2023-04-06T12:34:10;17.30;38.80
8939;DHT22;4504;48.810;9.172;2023-04-06T12:36:38;17.70;37.30
8939;DHT22;4504;48.810;9.172;2023-04-06T12:39:05;18.10;38.60
8939;DHT22;4504;48.810;9.172;2023-04-06T12:41:32;18.00;38.30
8939;DHT22;4504;48.810;9.172;2023-04-06T12:43:59;16.40;38.90
8939;DHT22;4504;48.810;9.172;2023-04-06T12:46:29;15.40;40.20
8939;DHT22;4504;48.810;9.172;2023-04-06T12:48:56;16.20;39.30
8939;DHT22;4504;48.810;9.172;2023-04-06T12:51:27;16.20;39.20
8939;DHT22;4504;48.810;9.172;2023-04-06T12:53:54;16.70;38.20
8939;DHT22;4504;48.810;9.172;2023-04-06T12:56:20;17.00;38.00
8939;DHT22;4504;48.810;9.172;2023-04-06T12:58:50;17.30;37.60
8939;DHT22;4504;48.810;9.172;2023-04-06T13:01:17;17.00;36.60
8939;DHT22;4504;48.810;9.172;2023-04-06T13:03:45;17.10;37.90
8939;DHT22;4504;48.810;9.172;2023-04-06T13:06:12;17.00;38.50
8939;DHT22;4504;48.810;9.172;2023-04-06T13:08:40;17.50;36.80
8939;DHT22;4504;48.810;9.172;2023-04-06T13:11:07;18.20;36.70
8939;DHT22;4504;48.810;9.172;2023-04-06T13:13:35;18.50;34.70
8939;DHT22;4504;48.810;9.172;2023-04-06T13:16:04;18.50;36.30
8939;DHT22;4504;48.810;9.172;2023-04-06T13:18:32;18.40;36.80
8939;DHT22;4504;48.810;9.172;2023-04-06T13:21:01;18.20;35.60
8939;DHT22;4504;48.810;9.172;2023-04-06T13:23:28;17.80;36.20
8939;DHT22;4504;48.810;9.172;2023-04-06T13:25:58;17.10;36.30
8939;DHT22;4504;48.810;9.172;2023-04-06T13:28:26;16.70;37.80
8939;DHT22;4504;48.810;9.172;2023-04-06T13:30:54;16.80;37.40
8939;DHT22;4504;48.810;9.172;2023-04-06T13:33:21;16.70;38.30
8939;DHT22;4504;48.810;9.172;2023-04-06T13:35:48;17.00;38.20
8939;DHT22;4504;48.810;9.172;2023-04-06T13:38:16;17.00;37.90
8939;DHT22;4504;48.810;9.172;2023-04-06T13:40:43;16.80;37.50
8939;DHT22;4504;48.810;9.172;2023-04-06T13:43:10;17.30;37.70
8939;DHT22;4504;48.810;9.172;2023-04-06T13:45:38;17.80;36.50
8939;DHT22;4504;48.810;9.172;2023-04-06T13:48:05;18.00;35.90
8939;DHT22;4504;48.810;9.172;2023-04-06T13:50:32;18.00;34.80
8939;DHT22;4504;48.810;9.172;2023-04-06T13:52:59;17.90;35.20
8939;DHT22;4504;48.810;9.172;2023-04-06T13:55:28;18.10;35.10
8939;DHT22;4504;48.810;9.172;2023-04-06T13:57:55;17.80;35.30
8939;DHT22;4504;48.810;9.172;2023-04-06T14:00:23;17.00;36.30
8939;DHT22;4504;48.810;9.172;2023-04-06T14:02:50;17.10;35.50
8939;DHT22;4504;48.810;9.172;2023-04-06T14:05:17;17.30;35.90
8939;DHT22;4504;48.810;9.172;2023-04-06T14:07:44;17.10;36.70
8939;DHT22;4504;48.810;9.172;2023-04-06T14:10:11;17.10;36.80
8939;DHT22;4504;48.810;9.172;2023-04-06T14:12:42;17.20;36.20
8939;DHT22;4504;48.810;9.172;2023-04-06T14:15:10;17.70;35.80
8939;DHT22;4504;48.810;9.172;2023-04-06T14:17:38;18.20;35.80
8939;DHT22;4504;48.810;9.172;2023-04-06T14:20:06;18.40;34.50
8939;DHT22;4504;48.810;9.172;2023-04-06T14:22:33;18.80;34.60
8939;DHT22;4504;48.810;9.172;2023-04-06T14:25:01;18.80;34.80
8939;DHT22;4504;48.810;9.172;2023-04-06T14:27:27;18.80;34.60
8939;DHT22;4504;48.810;9.172;2023-04-06T14:29:56;18.90;34.60
8939;DHT22;4504;48.810;9.172;2023-04-06T14:32:23;18.60;34.60
8939;DHT22;4504;48.810;9.172;2023-04-06T14:34:51;18.50;34.70
8939;DHT22;4504;48.810;9.172;2023-04-06T14:37:18;18.30;33.90
8939;DHT22;4504;48.810;9.172;2023-04-06T14:39:46;18.00;35.20
8939;DHT22;4504;48.810;9.172;2023-04-06T14:42:13;17.70;35.70
8939;DHT22;4504;48.810;9.172;2023-04-06T14:44:40;17.30;37.10
8939;DHT22;4504;48.810;9.172;2023-04-06T14:47:10;16.90;35.70
8939;DHT22;4504;48.810;9.172;2023-04-06T14:49:37;16.60;36.00
8939;DHT22;4504;48.810;9.172;2023-04-06T14:52:04;16.50;36.70
8939;DHT22;4504;48.810;9.172;2023-04-06T14:54:31;16.30;37.00
8939;DHT22;4504;48.810;9.172;2023-04-06T14:56:58;16.20;37.10
8939;DHT22;4504;48.810;9.172;2023-04-06T14:59:36;16.10;36.50
8939;DHT22;4504;48.810;9.172;2023-04-06T15:02:03;16.40;36.70
8939;DHT22;4504;48.810;9.172;2023-04-06T15:04:33;16.40;37.40
8939;DHT22;4504;48.810;9.172;2023-04-06T15:07:00;16.40;37.60
8939;DHT22;4504;48.810;9.172;2023-04-06T15:09:27;16.40;36.60
8939;DHT22;4504;48.810;9.172;2023-04-06T15:11:54;16.20;36.90
8939;DHT22;4504;48.810;9.172;2023-04-06T15:14:22;16.00;37.40
8939;DHT22;4504;48.810;9.172;2023-04-06T15:16:49;15.90;36.90
8939;DHT22;4504;48.810;9.172;2023-04-06T15:19:16;15.70;37.60
8939;DHT22;4504;48.810;9.172;2023-04-06T15:21:44;15.60;38.40
8939;DHT22;4504;48.810;9.172;2023-04-06T15:24:11;15.70;37.60
8939;DHT22;4504;48.810;9.172;2023-04-06T15:26:38;15.70;37.40
8939;DHT22;4504;48.810;9.172;2023-04-06T15:29:05;15.70;38.20
8939;DHT22;4504;48.810;9.172;2023-04-06T15:31:32;15.70;38.90
8939;DHT22;4504;48.810;9.172;2023-04-06T15:33:59;15.70;38.80
8939;DHT22;4504;48.810;9.172;2023-04-06T15:36:27;15.60;38.40
8939;DHT22;4504;48.810;9.172;2023-04-06T15:38:56;15.70;37.20
8939;DHT22;4504;48.810;9.172;2023-04-06T15:41:24;15.40;36.70
8939;DHT22;4504;48.810;9.172;2023-04-06T15:43:52;15.20;38.50
8939;DHT22;4504;48.810;9.172;2023-04-06T15:46:19;15.20;39.20
8939;DHT22;4504;48.810;9.172;2023-04-06T15:48:46;15.00;38.60
8939;DHT22;4504;48.810;9.172;2023-04-06T15:51:13;14.80;39.50
8939;DHT22;4504;48.810;9.172;2023-04-06T15:53:41;14.90;38.70
8939;DHT22;4504;48.810;9.172;2023-04-06T15:56:09;15.00;38.70
8939;DHT22;4504;48.810;9.172;2023-04-06T15:58:39;15.00;39.20
8939;DHT22;4504;48.810;9.172;2023-04-06T16:01:13;15.00;40.20
8939;DHT22;4504;48.810;9.172;2023-04-06T16:03:40;14.90;40.00
8939;DHT22;4504;48.810;9.172;2023-04-06T16:06:07;14.60;40.70
8939;DHT22;4504;48.810;9.172;2023-04-06T16:08:34;14.20;40.80
8939;DHT22;4504;48.810;9.172;2023-04-06T16:11:01;14.20;41.10
8939;DHT22;4504;48.810;9.172;2023-04-06T16:13:30;14.30;41.20
8939;DHT22;4504;48.810;9.172;2023-04-06T16:15:57;14.50;41.70
8939;DHT22;4504;48.810;9.172;2023-04-06T16:18:24;14.50;40.20
8939;DHT22;4504;48.810;9.172;2023-04-06T16:20:51;14.40;40.70
8939;DHT22;4504;48.810;9.172;2023-04-06T16:23:17;14.20;40.80